sensor_id;sensor_type;location;lat;lon;timestamp;P1;durP1;ratioP1;P2;durP2;ratioP2
53644;SDS011;39547;45.554;12.068;2022-09-21T00:02:19;11.10;;;2.60;;
53644;SDS011;39547;45.554;12.068;2022-09-21T00:08:20;8.63;;;2.53;;
53644;SDS011;39547;45.554;12.068;2022-09-21T00:14:22;10.10;;;2.65;;
53644;SDS011;39547;45.554;12.068;2022-09-21T00:20:24;9.52;;;2.72;;
53644;SDS011;39547;45.554;12.068;2022-09-21T00:26:27;10.05;;;2.40;;
53644;SDS011;39547;45.554;12.068;2022-09-21T00:32:31;8.82;;;2.33;;
53644;SDS011;39547;45.554;12.068;2022-09-21T00:38:34;9.07;;;2.50;;
53644;SDS011;39547;45.554;12.068;2022-09-21T00:44:36;10.95;;;2.50;;
53644;SDS011;39547;45.554;12.068;2022-09-21T00:50:39;11.55;;;2.60;;
53644;SDS011;39547;45.554;12.068;2022-09-21T00:56:44;8.35;;;2.47;;
53644;SDS011;39547;45.554;12.068;2022-09-21T01:02:46;8.55;;;2.30;;
53644;SDS011;39547;45.554;12.068;2022-09-21T01:08:51;9.27;;;2.30;;
53644;SDS011;39547;45.554;12.068;2022-09-21T01:15:03;9.05;;;2.30;;
53644;SDS011;39547;45.554;12.068;2022-09-21T01:21:24;8.05;;;2.20;;
53644;SDS011;39547;45.554;12.068;2022-09-21T01:34:32;8.15;;;2.30;;
53644;SDS011;39547;45.554;12.068;2022-09-21T01:40:40;7.82;;;2.40;;
53644;SDS011;39547;45.554;12.068;2022-09-21T01:53:21;9.00;;;2.50;;
53644;SDS011;39547;45.554;12.068;2022-09-21T01:59:20;8.52;;;2.45;;
53644;SDS011;39547;45.554;12.068;2022-09-21T02:05:27;10.50;;;2.45;;
53644;SDS011;39547;45.554;12.068;2022-09-21T02:11:32;9.32;;;2.40;;
53644;SDS011;39547;45.554;12.068;2022-09-21T02:23:56;8.95;;;2.60;;
53644;SDS011;39547;45.554;12.068;2022-09-21T02:30:24;9.40;;;2.78;;
53644;SDS011;39547;45.554;12.068;2022-09-21T02:36:42;10.25;;;2.92;;
53644;SDS011;39547;45.554;12.068;2022-09-21T02:42:50;9.68;;;3.00;;
53644;SDS011;39547;45.554;12.068;2022-09-21T02:48:57;10.10;;;2.83;;
53644;SDS011;39547;45.554;12.068;2022-09-21T02:55:04;10.35;;;2.85;;
53644;SDS011;39547;45.554;12.068;2022-09-21T03:01:08;10.00;;;2.75;;
53644;SDS011;39547;45.554;12.068;2022-09-21T03:07:12;9.98;;;3.10;;
53644;SDS011;39547;45.554;12.068;2022-09-21T03:13:16;9.50;;;2.80;;
53644;SDS011;39547;45.554;12.068;2022-09-21T03:19:18;9.95;;;3.00;;
53644;SDS011;39547;45.554;12.068;2022-09-21T03:25:20;10.27;;;3.03;;
53644;SDS011;39547;45.554;12.068;2022-09-21T03:31:22;12.00;;;3.28;;
53644;SDS011;39547;45.554;12.068;2022-09-21T03:37:24;10.98;;;3.20;;
53644;SDS011;39547;45.554;12.068;2022-09-21T03:43:25;10.20;;;3.20;;
53644;SDS011;39547;45.554;12.068;2022-09-21T03:49:27;10.75;;;3.30;;
53644;SDS011;39547;45.554;12.068;2022-09-21T03:55:29;10.77;;;3.33;;
53644;SDS011;39547;45.554;12.068;2022-09-21T04:01:31;10.50;;;3.20;;
53644;SDS011;39547;45.554;12.068;2022-09-21T04:07:33;10.45;;;3.30;;
53644;SDS011;39547;45.554;12.068;2022-09-21T04:13:35;11.10;;;3.35;;
53644;SDS011;39547;45.554;12.068;2022-09-21T04:19:37;10.90;;;3.50;;
53644;SDS011;39547;45.554;12.068;2022-09-21T04:25:38;10.45;;;3.38;;
53644;SDS011;39547;45.554;12.068;2022-09-21T04:31:40;10.82;;;3.60;;
53644;SDS011;39547;45.554;12.068;2022-09-21T04:37:42;10.77;;;3.60;;
53644;SDS011;39547;45.554;12.068;2022-09-21T04:43:44;11.18;;;3.60;;
53644;SDS011;39547;45.554;12.068;2022-09-21T04:49:46;10.82;;;3.40;;
53644;SDS011;39547;45.554;12.068;2022-09-21T04:55:47;9.90;;;3.28;;
53644;SDS011;39547;45.554;12.068;2022-09-21T05:01:49;11.32;;;3.53;;
53644;SDS011;39547;45.554;12.068;2022-09-21T05:07:50;10.30;;;3.30;;
53644;SDS011;39547;45.554;12.068;2022-09-21T05:13:52;10.77;;;3.40;;
53644;SDS011;39547;45.554;12.068;2022-09-21T05:19:53;10.70;;;3.40;;
53644;SDS011;39547;45.554;12.068;2022-09-21T05:25:55;10.68;;;3.30;;
53644;SDS011;39547;45.554;12.068;2022-09-21T05:32:00;10.80;;;3.30;;
53644;SDS011;39547;45.554;12.068;2022-09-21T05:38:14;9.35;;;2.88;;
53644;SDS011;39547;45.554;12.068;2022-09-21T05:44:18;11.02;;;3.15;;
53644;SDS011;39547;45.554;12.068;2022-09-21T05:50:27;9.90;;;3.00;;
53644;SDS011;39547;45.554;12.068;2022-09-21T06:03:28;12.40;;;3.03;;
53644;SDS011;39547;45.554;12.068;2022-09-21T06:09:31;10.43;;;2.90;;
53644;SDS011;39547;45.554;12.068;2022-09-21T06:15:33;10.07;;;2.90;;
53644;SDS011;39547;45.554;12.068;2022-09-21T06:21:38;11.95;;;3.20;;
53644;SDS011;39547;45.554;12.068;2022-09-21T06:27:39;11.00;;;3.03;;
53644;SDS011;39547;45.554;12.068;2022-09-21T06:33:41;37.42;;;7.55;;
53644;SDS011;39547;45.554;12.068;2022-09-21T06:39:43;19.52;;;5.15;;
53644;SDS011;39547;45.554;12.068;2022-09-21T06:45:54;12.60;;;3.70;;
53644;SDS011;39547;45.554;12.068;2022-09-21T06:51:57;11.55;;;3.63;;
53644;SDS011;39547;45.554;12.068;2022-09-21T06:58:02;16.35;;;4.32;;
53644;SDS011;39547;45.554;12.068;2022-09-21T07:04:04;12.05;;;3.17;;
53644;SDS011;39547;45.554;12.068;2022-09-21T07:10:09;11.33;;;2.97;;
53644;SDS011;39547;45.554;12.068;2022-09-21T07:16:10;10.45;;;2.70;;
53644;SDS011;39547;45.554;12.068;2022-09-21T07:22:12;9.85;;;2.70;;
53644;SDS011;39547;45.554;12.068;2022-09-21T07:28:13;9.18;;;2.70;;
53644;SDS011;39547;45.554;12.068;2022-09-21T07:34:15;9.15;;;2.70;;
53644;SDS011;39547;45.554;12.068;2022-09-21T07:40:17;8.82;;;2.60;;
53644;SDS011;39547;45.554;12.068;2022-09-21T07:46:18;9.20;;;2.60;;
53644;SDS011;39547;45.554;12.068;2022-09-21T07:52:20;9.25;;;2.50;;
53644;SDS011;39547;45.554;12.068;2022-09-21T07:58:21;9.07;;;2.50;;
53644;SDS011;39547;45.554;12.068;2022-09-21T08:04:41;8.32;;;2.40;;
53644;SDS011;39547;45.554;12.068;2022-09-21T08:10:43;9.27;;;2.50;;
53644;SDS011;39547;45.554;12.068;2022-09-21T08:16:45;7.88;;;2.40;;
53644;SDS011;39547;45.554;12.068;2022-09-21T08:22:47;8.85;;;2.42;;
53644;SDS011;39547;45.554;12.068;2022-09-21T08:28:50;8.90;;;2.53;;
53644;SDS011;39547;45.554;12.068;2022-09-21T08:34:53;8.63;;;2.40;;
53644;SDS011;39547;45.554;12.068;2022-09-21T08:40:54;8.75;;;2.40;;
53644;SDS011;39547;45.554;12.068;2022-09-21T08:53:30;7.68;;;2.30;;
53644;SDS011;39547;45.554;12.068;2022-09-21T08:59:42;7.35;;;2.35;;
53644;SDS011;39547;45.554;12.068;2022-09-21T09:18:13;6.47;;;2.30;;
53644;SDS011;39547;45.554;12.068;2022-09-21T09:24:45;6.82;;;2.20;;
53644;SDS011;39547;45.554;12.068;2022-09-21T09:30:58;7.75;;;2.30;;
53644;SDS011;39547;45.554;12.068;2022-09-21T09:37:22;7.20;;;2.20;;
53644;SDS011;39547;45.554;12.068;2022-09-21T09:56:12;6.63;;;2.20;;
53644;SDS011;39547;45.554;12.068;2022-09-21T10:08:29;6.82;;;2.20;;
53644;SDS011;39547;45.554;12.068;2022-09-21T10:14:37;7.57;;;2.30;;
53644;SDS011;39547;45.554;12.068;2022-09-21T10:20:38;7.25;;;2.20;;
53644;SDS011;39547;45.554;12.068;2022-09-21T10:26:53;8.40;;;2.50;;
53644;SDS011;39547;45.554;12.068;2022-09-21T10:32:57;7.22;;;2.30;;
53644;SDS011;39547;45.554;12.068;2022-09-21T10:45:23;6.68;;;2.30;;
53644;SDS011;39547;45.554;12.068;2022-09-21T10:51:28;8.35;;;2.40;;
53644;SDS011;39547;45.554;12.068;2022-09-21T11:16:13;7.85;;;2.50;;
53644;SDS011;39547;45.554;12.068;2022-09-21T11:28:52;7.07;;;2.38;;
53644;SDS011;39547;45.554;12.068;2022-09-21T11:54:28;9.05;;;2.50;;
53644;SDS011;39547;45.554;12.068;2022-09-21T12:00:50;7.20;;;2.38;;
53644;SDS011;39547;45.554;12.068;2022-09-21T12:20:24;6.82;;;2.20;;
53644;SDS011;39547;45.554;12.068;2022-09-21T12:26:28;7.57;;;2.20;;
53644;SDS011;39547;45.554;12.068;2022-09-21T12:45:14;5.63;;;2.00;;
53644;SDS011;39547;45.554;12.068;2022-09-21T13:10:47;8.48;;;2.05;;
53644;SDS011;39547;45.554;12.068;2022-09-21T13:16:56;6.75;;;1.90;;
53644;SDS011;39547;45.554;12.068;2022-09-21T13:23:03;6.85;;;1.90;;
53644;SDS011;39547;45.554;12.068;2022-09-21T13:41:38;7.25;;;2.00;;
53644;SDS011;39547;45.554;12.068;2022-09-21T13:47:41;7.97;;;2.08;;
53644;SDS011;39547;45.554;12.068;2022-09-21T13:53:45;5.15;;;1.85;;
53644;SDS011;39547;45.554;12.068;2022-09-21T13:59:47;7.88;;;1.90;;
53644;SDS011;39547;45.554;12.068;2022-09-21T14:12:42;3.60;;;1.70;;
53644;SDS011;39547;45.554;12.068;2022-09-21T14:18:46;6.13;;;1.85;;
53644;SDS011;39547;45.554;12.068;2022-09-21T14:24:48;5.32;;;1.80;;
53644;SDS011;39547;45.554;12.068;2022-09-21T14:30:57;5.50;;;1.67;;
53644;SDS011;39547;45.554;12.068;2022-09-21T14:37:02;5.05;;;1.63;;
53644;SDS011;39547;45.554;12.068;2022-09-21T14:43:12;6.97;;;1.90;;
53644;SDS011;39547;45.554;12.068;2022-09-21T14:49:37;5.82;;;1.73;;
53644;SDS011;39547;45.554;12.068;2022-09-21T15:02:41;6.63;;;1.98;;
53644;SDS011;39547;45.554;12.068;2022-09-21T15:08:55;6.28;;;1.80;;
53644;SDS011;39547;45.554;12.068;2022-09-21T15:22:13;8.48;;;2.00;;
53644;SDS011;39547;45.554;12.068;2022-09-21T15:28:20;7.40;;;1.88;;
53644;SDS011;39547;45.554;12.068;2022-09-21T15:34:22;8.20;;;2.08;;
53644;SDS011;39547;45.554;12.068;2022-09-21T15:40:25;5.03;;;1.85;;
53644;SDS011;39547;45.554;12.068;2022-09-21T15:46:29;5.72;;;1.70;;
53644;SDS011;39547;45.554;12.068;2022-09-21T15:52:35;5.80;;;1.75;;
53644;SDS011;39547;45.554;12.068;2022-09-21T15:58:42;4.60;;;1.60;;
53644;SDS011;39547;45.554;12.068;2022-09-21T16:04:45;4.77;;;1.70;;
53644;SDS011;39547;45.554;12.068;2022-09-21T16:10:52;6.90;;;1.60;;
53644;SDS011;39547;45.554;12.068;2022-09-21T16:17:28;7.60;;;1.90;;
53644;SDS011;39547;45.554;12.068;2022-09-21T16:23:35;6.72;;;1.90;;
53644;SDS011;39547;45.554;12.068;2022-09-21T16:29:40;4.15;;;1.58;;
53644;SDS011;39547;45.554;12.068;2022-09-21T16:35:43;5.20;;;1.70;;
53644;SDS011;39547;45.554;12.068;2022-09-21T16:47:51;9.95;;;2.53;;
53644;SDS011;39547;45.554;12.068;2022-09-21T16:53:54;6.85;;;1.90;;
53644;SDS011;39547;45.554;12.068;2022-09-21T16:59:59;5.57;;;1.80;;
53644;SDS011;39547;45.554;12.068;2022-09-21T17:06:01;7.25;;;1.90;;
53644;SDS011;39547;45.554;12.068;2022-09-21T17:12:04;6.68;;;2.00;;
53644;SDS011;39547;45.554;12.068;2022-09-21T17:18:08;7.30;;;2.05;;
53644;SDS011;39547;45.554;12.068;2022-09-21T17:24:12;7.60;;;2.00;;
53644;SDS011;39547;45.554;12.068;2022-09-21T17:30:14;6.32;;;1.95;;
53644;SDS011;39547;45.554;12.068;2022-09-21T17:36:17;9.88;;;2.20;;
53644;SDS011;39547;45.554;12.068;2022-09-21T17:42:20;6.47;;;1.90;;
53644;SDS011;39547;45.554;12.068;2022-09-21T17:48:25;7.45;;;2.10;;
53644;SDS011;39547;45.554;12.068;2022-09-21T17:54:26;10.93;;;2.78;;
53644;SDS011;39547;45.554;12.068;2022-09-21T18:06:48;10.60;;;2.95;;
53644;SDS011;39547;45.554;12.068;2022-09-21T18:19:02;11.55;;;3.17;;
53644;SDS011;39547;45.554;12.068;2022-09-21T18:25:16;11.50;;;3.30;;
53644;SDS011;39547;45.554;12.068;2022-09-21T18:44:09;10.70;;;2.95;;
53644;SDS011;39547;45.554;12.068;2022-09-21T18:50:27;10.30;;;2.88;;
53644;SDS011;39547;45.554;12.068;2022-09-21T18:56:37;11.50;;;3.88;;
53644;SDS011;39547;45.554;12.068;2022-09-21T19:02:39;11.80;;;3.70;;
53644;SDS011;39547;45.554;12.068;2022-09-21T19:21:36;10.90;;;3.08;;
53644;SDS011;39547;45.554;12.068;2022-09-21T19:27:45;10.95;;;3.13;;
53644;SDS011;39547;45.554;12.068;2022-09-21T19:33:58;12.40;;;3.50;;
53644;SDS011;39547;45.554;12.068;2022-09-21T19:40:18;10.75;;;3.35;;
53644;SDS011;39547;45.554;12.068;2022-09-21T19:52:40;11.05;;;3.10;;
53644;SDS011;39547;45.554;12.068;2022-09-21T19:58:42;10.60;;;3.30;;
53644;SDS011;39547;45.554;12.068;2022-09-21T20:05:06;14.00;;;3.60;;
53644;SDS011;39547;45.554;12.068;2022-09-21T20:11:58;13.35;;;3.90;;
53644;SDS011;39547;45.554;12.068;2022-09-21T20:18:00;12.55;;;3.80;;
53644;SDS011;39547;45.554;12.068;2022-09-21T20:24:26;11.18;;;3.80;;
53644;SDS011;39547;45.554;12.068;2022-09-21T20:30:32;13.73;;;3.72;;
53644;SDS011;39547;45.554;12.068;2022-09-21T20:36:35;12.57;;;3.85;;
53644;SDS011;39547;45.554;12.068;2022-09-21T20:42:37;11.52;;;3.80;;
53644;SDS011;39547;45.554;12.068;2022-09-21T20:48:40;11.73;;;3.97;;
53644;SDS011;39547;45.554;12.068;2022-09-21T20:54:43;12.02;;;3.90;;
53644;SDS011;39547;45.554;12.068;2022-09-21T21:00:44;12.70;;;3.97;;
53644;SDS011;39547;45.554;12.068;2022-09-21T21:06:46;12.52;;;4.50;;
53644;SDS011;39547;45.554;12.068;2022-09-21T21:12:48;12.50;;;4.45;;
53644;SDS011;39547;45.554;12.068;2022-09-21T21:18:50;12.00;;;4.32;;
53644;SDS011;39547;45.554;12.068;2022-09-21T21:24:51;13.25;;;4.55;;
53644;SDS011;39547;45.554;12.068;2022-09-21T21:30:53;12.30;;;4.80;;
53644;SDS011;39547;45.554;12.068;2022-09-21T21:36:54;12.90;;;5.00;;
53644;SDS011;39547;45.554;12.068;2022-09-21T21:42:56;12.48;;;4.88;;
53644;SDS011;39547;45.554;12.068;2022-09-21T21:48:57;14.00;;;5.30;;
53644;SDS011;39547;45.554;12.068;2022-09-21T21:54:59;15.43;;;4.82;;
53644;SDS011;39547;45.554;12.068;2022-09-21T22:01:21;12.65;;;4.68;;
53644;SDS011;39547;45.554;12.068;2022-09-21T22:07:24;13.48;;;5.40;;
53644;SDS011;39547;45.554;12.068;2022-09-21T22:13:26;13.18;;;5.40;;
53644;SDS011;39547;45.554;12.068;2022-09-21T22:19:29;13.02;;;5.25;;
53644;SDS011;39547;45.554;12.068;2022-09-21T22:25:30;12.10;;;5.13;;
53644;SDS011;39547;45.554;12.068;2022-09-21T22:31:33;12.23;;;5.18;;
53644;SDS011;39547;45.554;12.068;2022-09-21T22:37:37;13.63;;;6.28;;
53644;SDS011;39547;45.554;12.068;2022-09-21T22:43:39;14.02;;;5.57;;
53644;SDS011;39547;45.554;12.068;2022-09-21T22:49:40;13.43;;;5.30;;
53644;SDS011;39547;45.554;12.068;2022-09-21T22:55:42;13.30;;;5.82;;
53644;SDS011;39547;45.554;12.068;2022-09-21T23:01:43;13.70;;;5.60;;
53644;SDS011;39547;45.554;12.068;2022-09-21T23:07:48;13.40;;;5.97;;
53644;SDS011;39547;45.554;12.068;2022-09-21T23:13:53;13.77;;;5.85;;
53644;SDS011;39547;45.554;12.068;2022-09-21T23:19:56;13.85;;;5.57;;
53644;SDS011;39547;45.554;12.068;2022-09-21T23:26:01;12.98;;;5.40;;
53644;SDS011;39547;45.554;12.068;2022-09-21T23:32:07;13.68;;;6.35;;
53644;SDS011;39547;45.554;12.068;2022-09-21T23:38:08;13.50;;;5.45;;
53644;SDS011;39547;45.554;12.068;2022-09-21T23:44:09;12.35;;;5.32;;
53644;SDS011;39547;45.554;12.068;2022-09-21T23:50:11;14.00;;;5.90;;
53644;SDS011;39547;45.554;12.068;2022-09-21T23:56:14;13.70;;;5.88;;
